createdAt,value
2017-04-24T00:00:08.380Z,86.60
2017-04-24T00:01:07.292Z,86.60
2017-04-24T00:02:07.059Z,86.50
2017-04-24T00:03:05.968Z,86.60
2017-04-24T00:04:05.640Z,86.50
2017-04-24T00:05:04.533Z,86.50
2017-04-24T00:06:03.439Z,86.40
2017-04-24T00:07:03.088Z,86.60
2017-04-24T00:08:01.988Z,86.60
2017-04-24T00:09:00.933Z,86.60
2017-04-24T00:09:59.833Z,86.60
2017-04-24T00:10:58.743Z,86.60
2017-04-24T00:11:57.647Z,86.50
2017-04-24T00:12:56.555Z,86.60
2017-04-24T00:13:55.551Z,86.60
2017-04-24T00:14:54.477Z,86.50
2017-04-24T00:15:54.115Z,87.30
2017-04-24T00:16:53.057Z,86.40
2017-04-24T00:17:52.796Z,86.50
2017-04-24T00:18:51.700Z,86.40
2017-04-24T00:19:50.611Z,86.40
2017-04-24T00:20:49.567Z,86.40
2017-04-24T00:21:48.496Z,86.50
2017-04-24T00:22:48.175Z,86.40
2017-04-24T00:23:47.085Z,86.40
2017-04-24T00:24:46.004Z,87.10
2017-04-24T00:25:44.937Z,86.40
2017-04-24T00:26:43.861Z,86.60
2017-04-24T00:27:42.768Z,86.60
2017-04-24T00:28:41.674Z,86.40
2017-04-24T00:29:41.308Z,86.30
2017-04-24T00:30:40.258Z,86.20
2017-04-24T00:31:39.984Z,86.20
2017-04-24T00:32:38.941Z,86.10
2017-04-24T00:33:37.836Z,86.10
2017-04-24T00:34:36.840Z,87.00
2017-04-24T00:35:35.744Z,86.20
2017-04-24T00:36:34.649Z,86.10
2017-04-24T00:37:34.292Z,86.20
2017-04-24T00:38:33.244Z,86.10
2017-04-24T00:39:32.904Z,86.00
2017-04-24T00:40:31.800Z,85.80
2017-04-24T00:41:30.717Z,85.90
2017-04-24T00:42:29.641Z,85.90
2017-04-24T00:43:28.553Z,85.80
2017-04-24T00:44:28.226Z,86.70
2017-04-24T00:45:27.128Z,85.90
2017-04-24T00:46:26.789Z,85.70
2017-04-24T00:47:25.687Z,85.80
2017-04-24T00:48:24.573Z,85.70
2017-04-24T00:49:23.489Z,85.70
2017-04-24T00:50:22.429Z,85.70
2017-04-24T00:51:21.341Z,85.80
2017-04-24T00:52:20.248Z,85.80
2017-04-24T00:53:19.247Z,85.80
2017-04-24T00:54:18.148Z,85.90
2017-04-24T00:55:17.058Z,85.90
2017-04-24T00:56:16.741Z,85.80
2017-04-24T00:57:15.656Z,85.90
2017-04-24T00:58:14.564Z,85.90
2017-04-24T00:59:13.459Z,86.00
2017-04-24T01:00:12.364Z,86.10
2017-04-24T01:01:11.312Z,86.00
2017-04-24T01:02:10.258Z,85.90
2017-04-24T01:03:09.157Z,85.90
2017-04-24T01:04:08.065Z,86.00
2017-04-24T01:05:06.980Z,86.00
2017-04-24T01:06:05.889Z,86.00
2017-04-24T01:07:04.803Z,86.00
2017-04-24T01:08:03.762Z,85.90
2017-04-24T01:09:02.663Z,86.00
2017-04-24T01:10:01.554Z,85.90
2017-04-24T01:11:00.472Z,86.00
2017-04-24T01:12:00.111Z,86.80
2017-04-24T01:12:59.020Z,86.00
2017-04-24T01:13:57.947Z,86.00
2017-04-24T01:14:57.589Z,85.90
2017-04-24T01:15:56.527Z,85.70
2017-04-24T01:16:56.174Z,85.70
2017-04-24T01:17:55.073Z,85.80
2017-04-24T01:18:53.966Z,85.80
2017-04-24T01:19:53.629Z,85.30
2017-04-24T01:20:52.540Z,85.60
2017-04-24T01:21:52.194Z,85.50
2017-04-24T01:22:51.146Z,85.50
2017-04-24T01:23:50.083Z,85.90
2017-04-24T01:24:49.016Z,85.50
2017-04-24T01:25:47.948Z,85.40
2017-04-24T01:26:46.862Z,85.40
2017-04-24T01:27:46.496Z,85.30
2017-04-24T01:28:45.397Z,85.40
2017-04-24T01:29:44.345Z,85.40
2017-04-24T01:30:43.273Z,85.40
2017-04-24T01:31:42.221Z,85.40
2017-04-24T01:32:41.132Z,85.30
2017-04-24T01:33:40.394Z,85.20
2017-04-24T01:34:39.332Z,85.10
2017-04-24T01:35:38.996Z,85.10
2017-04-24T01:36:37.909Z,85.10
2017-04-24T01:37:37.576Z,85.20
2017-04-24T01:38:36.473Z,85.00
2017-04-24T01:39:35.380Z,84.90
2017-04-24T01:40:35.005Z,84.80
2017-04-24T01:41:33.915Z,84.60
2017-04-24T01:42:32.849Z,84.80
2017-04-24T01:43:31.770Z,85.00
2017-04-24T01:44:30.681Z,84.60
2017-04-24T01:45:29.592Z,85.40
2017-04-24T01:46:28.475Z,84.80
2017-04-24T01:47:27.373Z,84.70
2017-04-24T01:48:26.330Z,84.60
2017-04-24T01:49:25.304Z,84.50
2017-04-24T01:50:24.969Z,84.50
2017-04-24T01:51:23.899Z,84.30
2017-04-24T01:52:23.272Z,84.20
2017-04-24T01:53:22.917Z,84.30
2017-04-24T01:54:21.873Z,84.20
2017-04-24T01:55:20.818Z,84.20
2017-04-24T01:56:19.761Z,84.00
2017-04-24T01:57:18.660Z,84.10
2017-04-24T01:58:17.604Z,84.10
2017-04-24T01:59:16.504Z,84.00
2017-04-24T02:00:15.403Z,83.80
2017-04-24T02:01:14.380Z,84.00
2017-04-24T02:02:13.305Z,84.00
2017-04-24T02:03:12.293Z,84.00
2017-04-24T02:04:11.201Z,84.00
2017-04-24T02:05:10.107Z,84.00
2017-04-24T02:06:08.995Z,84.20
2017-04-24T02:07:07.944Z,84.20
2017-04-24T02:08:06.887Z,84.20
2017-04-24T02:09:06.550Z,84.10
2017-04-24T02:10:05.474Z,84.30
2017-04-24T02:11:05.119Z,84.20
2017-04-24T02:12:04.042Z,84.20
2017-04-24T02:13:03.742Z,84.30
2017-04-24T02:14:03.387Z,84.80
2017-04-24T02:15:02.313Z,84.30
2017-04-24T02:16:01.968Z,84.80
2017-04-24T02:17:00.899Z,84.10
2017-04-24T02:18:00.576Z,84.00
2017-04-24T02:18:59.515Z,83.90
2017-04-24T02:19:58.433Z,83.90
2017-04-24T02:20:57.312Z,83.90
2017-04-24T02:21:56.222Z,83.90
2017-04-24T02:22:55.853Z,83.90
2017-04-24T02:23:54.790Z,83.90
2017-04-24T02:24:53.725Z,83.90
2017-04-24T02:25:52.653Z,83.80
2017-04-24T02:26:51.572Z,83.70
2017-04-24T02:27:50.503Z,84.30
2017-04-24T02:28:49.445Z,83.60
2017-04-24T02:29:48.339Z,83.60
2017-04-24T02:30:47.290Z,83.70
2017-04-24T02:31:46.187Z,83.50
2017-04-24T02:32:45.083Z,83.40
2017-04-24T02:33:44.000Z,83.20
2017-04-24T02:34:43.670Z,83.40
2017-04-24T02:35:42.587Z,83.30
2017-04-24T02:36:42.252Z,83.30
2017-04-24T02:37:41.180Z,83.20
2017-04-24T02:38:40.841Z,83.10
2017-04-24T02:39:39.767Z,83.80
2017-04-24T02:40:38.667Z,83.20
2017-04-24T02:41:37.569Z,83.20
2017-04-24T02:42:36.504Z,82.90
2017-04-24T02:43:36.296Z,82.70
2017-04-24T02:44:35.953Z,82.80
2017-04-24T02:45:34.888Z,82.90
2017-04-24T02:46:33.806Z,82.60
2017-04-24T02:47:32.724Z,82.40
2017-04-24T02:48:31.706Z,82.50
2017-04-24T02:49:30.592Z,82.40
2017-04-24T02:50:30.272Z,82.30
2017-04-24T02:51:30.544Z,82.10
2017-04-24T02:52:29.431Z,82.10
2017-04-24T02:53:28.340Z,82.10
2017-04-24T02:54:27.265Z,82.00
2017-04-24T02:55:26.928Z,81.90
2017-04-24T02:56:25.879Z,82.10
2017-04-24T02:57:24.784Z,82.00
2017-04-24T02:58:23.708Z,81.70
2017-04-24T02:59:22.641Z,81.80
2017-04-24T03:00:21.572Z,81.60
2017-04-24T03:01:20.463Z,81.50
2017-04-24T03:02:19.367Z,81.60
2017-04-24T03:03:18.292Z,81.50
2017-04-24T03:04:17.946Z,80.80
2017-04-24T03:05:16.874Z,82.00
2017-04-24T03:06:16.555Z,81.30
2017-04-24T03:07:15.456Z,81.00
2017-04-24T03:08:15.101Z,80.80
2017-04-24T03:09:14.021Z,80.70
2017-04-24T03:10:12.916Z,80.70
2017-04-24T03:11:12.572Z,80.60
2017-04-24T03:12:11.481Z,80.40
2017-04-24T03:13:10.376Z,80.40
2017-04-24T03:14:10.040Z,80.10
2017-04-24T03:15:08.946Z,80.00
2017-04-24T03:16:07.859Z,79.90
2017-04-24T03:17:06.768Z,79.60
2017-04-24T03:18:05.700Z,79.80
2017-04-24T03:19:06.345Z,79.60
2017-04-24T03:20:05.244Z,79.70
2017-04-24T03:21:04.164Z,79.40
2017-04-24T03:22:03.091Z,79.30
2017-04-24T03:23:02.325Z,79.00
2017-04-24T03:24:01.272Z,78.80
2017-04-24T03:25:00.177Z,78.70
2017-04-24T03:25:59.085Z,78.70
2017-04-24T03:26:58.742Z,78.70
2017-04-24T03:27:57.693Z,78.60
2017-04-24T03:28:56.634Z,78.70
2017-04-24T03:29:55.572Z,78.60
2017-04-24T03:30:54.471Z,78.50
2017-04-24T03:31:53.384Z,78.30
2017-04-24T03:32:52.308Z,77.90
2017-04-24T03:33:51.224Z,77.80
2017-04-24T03:34:50.130Z,77.40
2017-04-24T03:35:49.083Z,77.40
2017-04-24T03:36:48.031Z,77.20
2017-04-24T03:37:46.945Z,77.20
2017-04-24T03:38:45.864Z,76.80
2017-04-24T03:39:45.505Z,76.40
2017-04-24T03:40:44.412Z,76.50
2017-04-24T03:41:43.335Z,76.50
2017-04-24T03:42:42.232Z,76.40
2017-04-24T03:43:41.148Z,76.40
2017-04-24T03:44:40.069Z,75.90
2017-04-24T03:45:39.687Z,76.00
2017-04-24T03:46:38.664Z,75.90
2017-04-24T03:47:37.593Z,76.20
2017-04-24T03:48:36.500Z,75.50
2017-04-24T03:49:35.403Z,75.60
2017-04-24T03:50:34.339Z,75.60
2017-04-24T03:51:33.249Z,75.00
2017-04-24T03:52:32.904Z,74.50
2017-04-24T03:53:31.856Z,74.60
2017-04-24T03:54:30.752Z,74.60
2017-04-24T03:55:29.685Z,74.70
2017-04-24T03:56:29.315Z,74.90
2017-04-24T03:57:28.209Z,74.70
2017-04-24T03:58:27.145Z,74.30
2017-04-24T03:59:26.799Z,74.40
2017-04-24T04:00:25.761Z,74.50
2017-04-24T04:01:24.693Z,74.50
2017-04-24T04:02:23.600Z,74.60
2017-04-24T04:03:23.254Z,74.20
2017-04-24T04:04:22.152Z,74.30
2017-04-24T04:06:20.391Z,74.10
2017-04-24T04:07:19.332Z,74.30
2017-04-24T04:08:18.987Z,74.20
2017-04-24T04:09:17.924Z,74.60
2017-04-24T04:10:16.835Z,74.80
2017-04-24T04:11:15.763Z,74.60
2017-04-24T04:12:15.411Z,74.20
2017-04-24T04:13:14.326Z,74.20
2017-04-24T04:14:13.231Z,74.20
2017-04-24T04:15:12.881Z,74.30
2017-04-24T04:16:11.802Z,74.20
2017-04-24T04:17:12.388Z,74.60
2017-04-24T04:18:11.285Z,74.00
2017-04-24T04:19:10.184Z,74.00
2017-04-24T04:20:09.860Z,73.70
2017-04-24T04:21:08.765Z,73.70
2017-04-24T04:22:08.400Z,73.60
2017-04-24T04:23:07.331Z,73.60
2017-04-24T04:24:06.234Z,73.60
2017-04-24T04:25:05.883Z,73.50
2017-04-24T04:26:04.780Z,73.60
2017-04-24T04:27:03.722Z,74.40
2017-04-24T04:28:02.652Z,73.40
2017-04-24T04:29:01.598Z,73.20
2017-04-24T04:30:00.528Z,73.20
2017-04-24T04:31:00.189Z,73.10
2017-04-24T04:31:59.101Z,73.10
2017-04-24T04:32:58.731Z,74.00
2017-04-24T04:33:57.664Z,72.70
2017-04-24T04:34:56.603Z,72.70
2017-04-24T04:35:55.520Z,72.90
2017-04-24T04:36:54.434Z,73.00
2017-04-24T04:37:54.087Z,72.80
2017-04-24T04:38:52.985Z,72.70
2017-04-24T04:39:51.882Z,73.70
2017-04-24T04:40:51.603Z,72.60
2017-04-24T04:41:50.533Z,73.00
2017-04-24T04:42:49.716Z,72.70
2017-04-24T04:43:48.650Z,72.70
2017-04-24T04:44:47.583Z,72.70
2017-04-24T04:45:46.487Z,72.80
2017-04-24T04:46:45.488Z,72.60
2017-04-24T04:47:45.145Z,72.50
2017-04-24T04:48:44.069Z,72.50
2017-04-24T04:49:43.759Z,72.40
2017-04-24T04:50:43.443Z,72.10
2017-04-24T04:51:42.422Z,71.90
2017-04-24T04:52:41.336Z,71.80
2017-04-24T04:53:40.263Z,71.40
2017-04-24T04:54:39.155Z,71.40
2017-04-24T04:55:38.056Z,71.40
2017-04-24T04:56:36.959Z,71.40
2017-04-24T04:57:36.605Z,71.20
2017-04-24T04:58:35.564Z,71.40
2017-04-24T04:59:34.480Z,71.60
2017-04-24T05:00:33.397Z,71.80
2017-04-24T05:01:32.357Z,71.80
2017-04-24T05:02:31.317Z,71.80
2017-04-24T05:03:30.229Z,72.10
2017-04-24T05:04:29.897Z,72.10
2017-04-24T05:05:28.783Z,72.00
2017-04-24T05:06:27.684Z,71.90
2017-04-24T05:07:27.356Z,71.90
2017-04-24T05:08:26.300Z,71.70
2017-04-24T05:09:25.274Z,71.50
2017-04-24T05:10:24.210Z,71.40
2017-04-24T05:11:23.127Z,71.10
2017-04-24T05:12:22.428Z,71.20
2017-04-24T05:13:21.324Z,71.40
2017-04-24T05:14:20.229Z,71.80
2017-04-24T05:15:19.137Z,71.70
2017-04-24T05:16:18.117Z,71.80
2017-04-24T05:17:17.025Z,71.40
2017-04-24T05:18:15.966Z,71.40
2017-04-24T05:19:14.880Z,71.00
2017-04-24T05:20:14.532Z,70.90
2017-04-24T05:21:13.459Z,70.80
2017-04-24T05:22:13.130Z,71.10
2017-04-24T05:23:12.072Z,71.10
2017-04-24T05:24:10.972Z,71.10
2017-04-24T05:25:09.891Z,71.10
2017-04-24T05:26:09.565Z,71.30
2017-04-24T05:27:08.551Z,70.60
2017-04-24T05:28:07.625Z,70.50
2017-04-24T05:29:06.532Z,70.10
2017-04-24T05:31:04.722Z,70.30
2017-04-24T05:32:04.475Z,70.40
2017-04-24T05:33:03.389Z,70.70
2017-04-24T05:34:03.068Z,70.80
2017-04-24T05:35:02.221Z,70.30
2017-04-24T05:36:01.138Z,70.50
2017-04-24T05:37:00.052Z,70.60
2017-04-24T05:37:58.977Z,70.70
2017-04-24T05:38:57.913Z,71.10
2017-04-24T05:39:56.883Z,70.90
2017-04-24T05:40:55.916Z,70.60
2017-04-24T05:41:54.840Z,70.80
2017-04-24T05:42:53.784Z,71.00
2017-04-24T05:43:52.673Z,70.90
2017-04-24T05:44:51.589Z,71.60
2017-04-24T05:45:51.264Z,70.60
2017-04-24T05:46:50.168Z,70.60
2017-04-24T05:47:49.841Z,70.40
2017-04-24T05:48:48.741Z,70.70
2017-04-24T05:49:47.730Z,70.70
2017-04-24T05:50:46.692Z,70.60
2017-04-24T05:51:45.863Z,70.50
2017-04-24T05:52:44.887Z,70.70
2017-04-24T05:53:44.601Z,70.80
2017-04-24T05:54:43.532Z,70.80
2017-04-24T05:55:42.632Z,70.60
2017-04-24T05:56:41.539Z,70.80
2017-04-24T05:57:41.231Z,71.30
2017-04-24T05:58:39.432Z,70.50
2017-04-24T05:59:38.380Z,71.20
2017-04-24T06:00:37.320Z,70.80
2017-04-24T06:01:36.222Z,70.60
2017-04-24T06:02:35.176Z,70.60
2017-04-24T06:03:35.772Z,70.60
2017-04-24T06:04:34.812Z,70.80
2017-04-24T06:06:33.331Z,70.50
2017-04-24T06:07:32.251Z,70.80
2017-04-24T06:08:31.208Z,70.60
2017-04-24T06:09:30.147Z,70.70
2017-04-24T06:10:29.815Z,70.30
2017-04-24T06:11:28.736Z,70.10
2017-04-24T06:12:28.425Z,70.10
2017-04-24T06:13:28.102Z,70.20
2017-04-24T06:14:27.052Z,70.40
2017-04-24T06:15:26.030Z,70.20
2017-04-24T06:16:24.976Z,70.10
2017-04-24T06:17:23.891Z,70.10
2017-04-24T06:18:22.821Z,70.30
2017-04-24T06:19:21.817Z,70.00
2017-04-24T06:20:21.788Z,69.50
2017-04-24T06:21:20.757Z,69.50
2017-04-24T06:22:19.660Z,69.10
2017-04-24T06:23:18.577Z,68.90
2017-04-24T06:24:17.545Z,68.90
2017-04-24T06:25:17.231Z,68.70
2017-04-24T06:26:16.184Z,68.20
2017-04-24T06:27:15.317Z,68.20
2017-04-24T06:28:15.048Z,68.00
2017-04-24T06:29:13.981Z,68.30
2017-04-24T06:30:12.920Z,68.40
2017-04-24T06:31:11.844Z,68.50
2017-04-24T06:32:10.873Z,68.50
2017-04-24T06:33:09.805Z,68.60
2017-04-24T06:35:08.848Z,68.70
2017-04-24T06:36:08.845Z,68.60
2017-04-24T06:37:07.799Z,68.50
2017-04-24T06:38:07.492Z,68.40
2017-04-24T06:39:06.609Z,68.60
2017-04-24T06:40:06.020Z,69.00
2017-04-24T06:41:05.008Z,68.80
2017-04-24T06:42:03.976Z,68.90
2017-04-24T06:43:02.961Z,69.00
2017-04-24T06:44:01.938Z,68.70
2017-04-24T06:45:00.934Z,68.70
2017-04-24T06:45:59.884Z,68.70
2017-04-24T06:46:58.840Z,68.50
2017-04-24T06:48:57.107Z,68.70
2017-04-24T06:49:56.019Z,68.40
2017-04-24T06:50:54.983Z,68.40
2017-04-24T06:51:54.629Z,68.20
2017-04-24T06:52:53.537Z,68.50
2017-04-24T06:53:52.567Z,68.50
2017-04-24T06:54:51.654Z,68.80
2017-04-24T06:55:50.612Z,68.50
2017-04-24T06:56:50.292Z,68.40
2017-04-24T06:57:49.231Z,68.50
2017-04-24T06:58:48.181Z,68.40
2017-04-24T06:59:47.943Z,68.10
2017-04-24T07:00:46.913Z,68.30
2017-04-24T07:01:45.822Z,68.30
2017-04-24T07:02:46.274Z,68.30
2017-04-24T07:03:45.208Z,68.50
2017-04-24T07:04:44.142Z,68.20
2017-04-24T07:05:43.084Z,68.50
2017-04-24T07:06:42.123Z,67.80
2017-04-24T07:07:41.152Z,67.80
2017-04-24T07:08:40.156Z,68.20
2017-04-24T07:09:39.849Z,67.50
2017-04-24T07:10:38.813Z,67.10
2017-04-24T07:11:37.719Z,67.20
2017-04-24T07:12:37.398Z,67.30
2017-04-24T07:13:36.303Z,67.30
2017-04-24T07:14:35.346Z,67.70
2017-04-24T07:15:34.280Z,67.90
2017-04-24T07:16:33.189Z,67.10
2017-04-24T07:17:32.096Z,67.10
2017-04-24T07:18:31.035Z,66.70
2017-04-24T07:19:29.987Z,66.30
2017-04-24T07:20:28.935Z,66.30
2017-04-24T07:21:27.884Z,66.20
2017-04-24T07:22:26.861Z,66.20
2017-04-24T07:23:25.797Z,66.20
2017-04-24T07:24:25.453Z,65.70
2017-04-24T07:25:24.454Z,65.40
2017-04-24T07:26:23.378Z,65.30
2017-04-24T07:27:23.033Z,65.40
2017-04-24T07:28:21.976Z,65.40
2017-04-24T07:29:20.960Z,65.30
2017-04-24T07:30:19.889Z,65.20
2017-04-24T07:31:18.830Z,65.20
2017-04-24T07:32:17.803Z,65.20
2017-04-24T07:33:16.775Z,65.10
2017-04-24T07:34:16.429Z,65.00
2017-04-24T07:35:15.344Z,64.80
2017-04-24T07:36:15.106Z,64.90
2017-04-24T07:37:14.012Z,65.20
2017-04-24T07:38:12.988Z,64.80
2017-04-24T07:39:11.916Z,64.20
2017-04-24T07:40:10.873Z,64.20
2017-04-24T07:41:10.528Z,64.00
2017-04-24T07:42:10.264Z,63.60
2017-04-24T07:43:09.958Z,64.40
2017-04-24T07:44:09.649Z,64.30
2017-04-24T07:45:08.606Z,62.90
2017-04-24T07:46:07.585Z,62.80
2017-04-24T07:47:06.514Z,62.40
2017-04-24T07:48:06.179Z,62.60
2017-04-24T07:49:05.121Z,62.80
2017-04-24T07:50:04.290Z,62.60
2017-04-24T07:51:03.261Z,62.60
2017-04-24T07:52:04.562Z,62.60
2017-04-24T07:53:03.471Z,62.30
2017-04-24T07:54:03.827Z,62.10
2017-04-24T07:55:02.773Z,62.30
2017-04-24T07:56:02.678Z,62.30
2017-04-24T07:57:02.343Z,62.10
2017-04-24T07:58:01.400Z,61.70
2017-04-24T07:59:00.341Z,61.80
2017-04-24T08:00:00.009Z,62.30
2017-04-24T08:00:58.913Z,62.30
2017-04-24T08:01:57.924Z,62.60
2017-04-24T08:02:56.859Z,62.50
2017-04-24T08:03:55.787Z,62.40
2017-04-24T08:04:54.732Z,63.10
2017-04-24T08:05:53.882Z,62.30
2017-04-24T08:06:52.831Z,62.10
2017-04-24T08:07:51.804Z,62.00
2017-04-24T08:08:50.730Z,61.80
2017-04-24T08:09:49.690Z,62.20
2017-04-24T08:10:48.607Z,62.20
2017-04-24T08:11:47.547Z,62.00
2017-04-24T08:12:46.480Z,62.10
2017-04-24T08:13:45.417Z,61.80
2017-04-24T08:14:44.352Z,61.60
2017-04-24T08:15:43.324Z,62.50
2017-04-24T08:16:42.257Z,61.70
2017-04-24T08:17:41.201Z,61.80
2017-04-24T08:18:40.166Z,61.80
2017-04-24T08:19:39.149Z,61.90
2017-04-24T08:20:38.064Z,62.20
2017-04-24T08:21:37.864Z,62.20
2017-04-24T08:22:37.526Z,62.40
2017-04-24T08:23:36.430Z,62.50
2017-04-24T08:24:36.119Z,63.50
2017-04-24T08:25:35.023Z,62.80
2017-04-24T08:26:35.120Z,62.70
2017-04-24T08:27:34.056Z,62.80
2017-04-24T08:28:32.993Z,62.90
2017-04-24T08:29:31.945Z,62.70
2017-04-24T08:30:31.503Z,62.70
2017-04-24T08:31:30.436Z,62.40
2017-04-24T08:32:29.408Z,62.50
2017-04-24T08:33:28.319Z,62.50
2017-04-24T08:34:27.316Z,62.30
2017-04-24T08:35:26.220Z,62.40
2017-04-24T08:36:25.163Z,62.50
2017-04-24T08:37:24.804Z,61.90
2017-04-24T08:38:23.804Z,62.70
2017-04-24T08:39:22.914Z,61.80
2017-04-24T08:40:22.608Z,60.70
2017-04-24T08:41:21.942Z,61.20
2017-04-24T08:42:20.911Z,61.40
2017-04-24T08:43:19.834Z,61.30
2017-04-24T08:44:18.794Z,61.40
2017-04-24T08:45:17.761Z,61.40
2017-04-24T08:46:16.681Z,62.60
2017-04-24T08:47:15.605Z,62.00
2017-04-24T08:48:15.308Z,61.80
2017-04-24T08:49:15.029Z,61.70
2017-04-24T08:50:13.955Z,61.10
2017-04-24T08:51:12.863Z,61.10
2017-04-24T08:52:12.516Z,61.30
2017-04-24T08:53:11.435Z,60.90
2017-04-24T08:54:11.149Z,60.80
2017-04-24T08:55:10.090Z,59.80
2017-04-24T08:56:09.001Z,59.60
2017-04-24T08:57:08.656Z,60.00
2017-04-24T08:58:07.564Z,59.50
2017-04-24T08:59:06.510Z,59.60
2017-04-24T09:00:05.457Z,59.40
2017-04-24T09:01:04.430Z,59.10
2017-04-24T09:02:04.121Z,58.80
2017-04-24T09:03:03.812Z,59.10
2017-04-24T09:04:02.731Z,58.80
2017-04-24T09:05:01.677Z,58.80
2017-04-24T09:06:00.646Z,58.90
2017-04-24T09:06:59.569Z,58.60
2017-04-24T09:07:58.534Z,58.20
2017-04-24T09:08:57.492Z,58.50
2017-04-24T09:09:56.416Z,58.60
2017-04-24T09:10:55.394Z,58.70
2017-04-24T09:11:54.366Z,58.60
2017-04-24T09:12:54.035Z,58.30
2017-04-24T09:13:53.005Z,58.40
2017-04-24T09:14:51.982Z,58.80
2017-04-24T09:15:50.901Z,59.30
2017-04-24T09:16:50.627Z,59.50
2017-04-24T09:17:49.564Z,59.50
2017-04-24T09:18:48.484Z,59.60
2017-04-24T09:19:47.409Z,59.80
2017-04-24T09:20:46.332Z,59.80
2017-04-24T09:21:45.256Z,59.90
2017-04-24T09:22:44.192Z,59.90
2017-04-24T09:23:43.897Z,60.00
2017-04-24T09:24:43.558Z,59.70
2017-04-24T09:25:42.486Z,59.70
2017-04-24T09:26:41.420Z,59.70
2017-04-24T09:27:40.335Z,59.50
2017-04-24T09:28:40.024Z,59.30
2017-04-24T09:29:38.991Z,59.30
2017-04-24T09:30:37.959Z,59.90
2017-04-24T09:31:37.952Z,59.10
2017-04-24T09:32:36.893Z,58.90
2017-04-24T09:33:36.260Z,59.20
2017-04-24T09:34:35.256Z,59.20
2017-04-24T09:35:34.970Z,59.00
2017-04-24T09:36:33.894Z,58.80
2017-04-24T09:37:32.910Z,58.70
2017-04-24T09:38:31.866Z,59.10
2017-04-24T09:39:30.804Z,59.00
2017-04-24T09:40:29.764Z,59.00
2017-04-24T09:41:29.432Z,58.60
2017-04-24T09:42:28.382Z,58.70
2017-04-24T09:43:27.436Z,58.60
2017-04-24T09:44:27.167Z,58.70
2017-04-24T09:45:26.287Z,58.50
2017-04-24T09:46:25.212Z,59.40
2017-04-24T09:47:24.144Z,58.80
2017-04-24T09:48:23.080Z,58.60
2017-04-24T09:49:22.001Z,58.40
2017-04-24T09:50:20.965Z,58.90
2017-04-24T09:51:19.902Z,57.90
2017-04-24T09:52:19.568Z,57.50
2017-04-24T09:53:18.551Z,57.00
2017-04-24T09:54:17.479Z,56.80
2017-04-24T09:55:17.209Z,56.80
2017-04-24T09:56:16.309Z,57.10
2017-04-24T09:57:15.268Z,56.70
2017-04-24T09:58:14.290Z,56.70
2017-04-24T09:59:13.236Z,56.70
2017-04-24T10:00:12.246Z,56.50
2017-04-24T10:01:11.196Z,57.70
2017-04-24T10:02:10.185Z,57.00
2017-04-24T10:03:09.107Z,57.00
2017-04-24T10:04:08.175Z,57.40
2017-04-24T10:05:07.108Z,57.50
2017-04-24T10:06:06.141Z,58.70
2017-04-24T10:07:05.123Z,58.10
2017-04-24T10:08:04.074Z,58.20
2017-04-24T10:09:03.056Z,58.40
2017-04-24T10:10:01.993Z,58.30
2017-04-24T10:11:00.932Z,58.40
2017-04-24T10:11:59.846Z,58.70
2017-04-24T10:12:58.758Z,58.80
2017-04-24T10:13:58.462Z,59.30
2017-04-24T10:14:57.432Z,58.80
2017-04-24T10:15:57.121Z,58.70
2017-04-24T10:16:56.795Z,59.20
2017-04-24T10:17:55.750Z,58.70
2017-04-24T10:18:54.688Z,58.90
2017-04-24T10:19:54.414Z,58.70
2017-04-24T10:20:53.363Z,59.10
2017-04-24T10:21:52.297Z,59.40
2017-04-24T10:22:51.278Z,59.30
2017-04-24T10:23:50.217Z,59.10
2017-04-24T10:24:49.881Z,60.00
2017-04-24T10:25:48.831Z,59.60
2017-04-24T10:26:47.748Z,59.80
2017-04-24T10:27:46.689Z,59.90
2017-04-24T10:28:45.656Z,59.70
2017-04-24T10:29:44.591Z,60.00
2017-04-24T10:30:43.508Z,59.70
2017-04-24T10:31:43.215Z,60.00
2017-04-24T10:32:42.151Z,59.70
2017-04-24T10:33:41.073Z,59.80
2017-04-24T10:34:40.765Z,59.60
2017-04-24T10:35:40.454Z,59.30
2017-04-24T10:36:39.364Z,59.10
2017-04-24T10:37:38.299Z,59.20
2017-04-24T10:38:37.338Z,59.30
2017-04-24T10:39:36.320Z,59.60
2017-04-24T10:40:35.240Z,59.60
2017-04-24T10:41:34.151Z,59.60
2017-04-24T10:42:34.101Z,60.00
2017-04-24T10:43:33.057Z,60.00
2017-04-24T10:44:32.020Z,59.80
2017-04-24T10:45:31.762Z,60.10
2017-04-24T10:46:30.756Z,60.50
2017-04-24T10:47:29.694Z,60.90
2017-04-24T10:48:29.394Z,61.30
2017-04-24T10:49:29.116Z,61.10
2017-04-24T10:50:28.660Z,61.40
2017-04-24T10:51:27.729Z,61.90
2017-04-24T10:52:27.020Z,61.80
2017-04-24T10:53:25.949Z,61.90
2017-04-24T10:54:24.864Z,61.80
2017-04-24T10:55:23.844Z,61.70
2017-04-24T10:56:22.883Z,61.10
2017-04-24T10:57:22.593Z,60.80
2017-04-24T10:58:22.284Z,60.40
2017-04-24T10:59:21.978Z,60.10
2017-04-24T11:00:21.751Z,59.90
2017-04-24T11:01:20.730Z,60.00
2017-04-24T11:02:19.678Z,59.90
2017-04-24T11:03:18.617Z,59.90
2017-04-24T11:04:17.873Z,60.40
2017-04-24T11:05:16.801Z,60.50
2017-04-24T11:06:15.801Z,60.50
2017-04-24T11:07:14.791Z,60.20
2017-04-24T11:08:13.762Z,60.40
2017-04-24T11:09:12.725Z,60.50
2017-04-24T11:10:12.399Z,60.40
2017-04-24T11:11:11.432Z,60.70
2017-04-24T11:12:10.399Z,60.80
2017-04-24T11:13:10.099Z,61.00
2017-04-24T11:14:09.021Z,61.50
2017-04-24T11:15:07.952Z,61.60
2017-04-24T11:16:06.856Z,62.30
2017-04-24T11:17:06.538Z,62.10
2017-04-24T11:18:06.235Z,62.40
2017-04-24T11:19:05.950Z,62.50
2017-04-24T11:20:04.933Z,62.40
2017-04-24T11:21:03.903Z,62.80
2017-04-24T11:22:03.657Z,62.70
2017-04-24T11:23:02.654Z,62.80
2017-04-24T11:24:01.585Z,62.90
2017-04-24T11:25:01.308Z,63.00
2017-04-24T11:26:00.273Z,63.10
2017-04-24T11:26:59.202Z,63.50
2017-04-24T11:27:58.182Z,63.60
2017-04-24T11:28:57.148Z,63.30
2017-04-24T11:29:56.063Z,63.20
2017-04-24T11:30:55.749Z,63.30
2017-04-24T11:31:54.711Z,63.90
2017-04-24T11:32:53.666Z,63.90
2017-04-24T11:33:53.091Z,64.60
2017-04-24T11:34:52.055Z,64.60
2017-04-24T11:35:51.024Z,64.70
2017-04-24T11:36:50.024Z,64.50
2017-04-24T11:37:48.964Z,64.20
2017-04-24T11:38:48.615Z,64.00
2017-04-24T11:39:47.570Z,64.20
2017-04-24T11:40:46.505Z,65.00
2017-04-24T11:41:45.437Z,65.10
2017-04-24T11:42:44.376Z,64.00
2017-04-24T11:43:44.060Z,63.50
2017-04-24T11:44:42.987Z,63.60
2017-04-24T11:45:41.909Z,63.60
2017-04-24T11:46:40.832Z,63.50
2017-04-24T11:47:39.739Z,63.40
2017-04-24T11:48:38.732Z,63.60
2017-04-24T11:49:37.684Z,63.80
2017-04-24T11:50:36.615Z,63.70
2017-04-24T11:51:35.552Z,64.00
2017-04-24T11:52:34.477Z,63.40
2017-04-24T11:53:33.450Z,63.40
2017-04-24T11:54:32.440Z,63.40
2017-04-24T11:55:31.609Z,63.10
2017-04-24T11:56:30.550Z,63.20
2017-04-24T11:57:30.291Z,62.80
2017-04-24T11:58:29.279Z,62.60
2017-04-24T11:59:28.455Z,62.80
2017-04-24T12:00:27.452Z,62.70
2017-04-24T12:01:26.441Z,62.30
2017-04-24T12:02:25.400Z,61.60
2017-04-24T12:03:24.351Z,61.50
2017-04-24T12:04:24.280Z,60.60
2017-04-24T12:05:23.187Z,60.20
2017-04-24T12:06:22.157Z,60.20
2017-04-24T12:07:21.156Z,60.00
2017-04-24T12:08:20.239Z,60.10
2017-04-24T12:09:20.041Z,60.00
2017-04-24T12:10:18.981Z,60.00
2017-04-24T12:11:17.905Z,59.40
2017-04-24T12:12:16.896Z,60.00
2017-04-24T12:13:15.877Z,60.20
2017-04-24T12:14:14.955Z,60.30
2017-04-24T12:15:13.919Z,60.50
2017-04-24T12:16:12.867Z,60.30
2017-04-24T12:17:11.784Z,60.30
2017-04-24T12:18:10.789Z,60.10
2017-04-24T12:19:09.720Z,60.00
2017-04-24T12:20:08.660Z,60.40
2017-04-24T12:21:07.903Z,60.20
2017-04-24T12:22:06.803Z,60.50
2017-04-24T12:23:06.037Z,60.00
2017-04-24T12:24:05.759Z,60.30
2017-04-24T12:25:04.687Z,60.60
2017-04-24T12:26:03.661Z,60.50
2017-04-24T12:27:02.607Z,60.00
2017-04-24T12:28:02.451Z,60.90
2017-04-24T12:29:01.593Z,60.70
2017-04-24T12:30:00.531Z,61.00
2017-04-24T12:30:59.487Z,61.30
2017-04-24T12:32:02.440Z,61.50
2017-04-24T12:33:01.433Z,61.20
2017-04-24T12:34:00.439Z,61.60
2017-04-24T12:34:59.364Z,61.80
2017-04-24T12:35:59.044Z,62.10
2017-04-24T12:36:57.996Z,61.60
2017-04-24T12:37:56.930Z,61.50
2017-04-24T12:38:56.596Z,61.60
2017-04-24T12:39:55.504Z,61.70
2017-04-24T12:40:55.173Z,61.70
2017-04-24T12:41:54.115Z,61.80
2017-04-24T12:42:53.058Z,61.90
2017-04-24T12:43:53.566Z,60.60
2017-04-24T12:44:52.489Z,62.20
2017-04-24T12:45:51.443Z,62.10